• Join FlightAware (Why Join?)
  • Login
  • US Flag 
02:39AM EDT


 

Airport Tracker/Info


-or-


 

Live Flight TrackerFlight Track Log ✈ DAL3860 ✈ 22-Apr-2013 ✈ KCLE - KMSP

Flight Track Log - Related Links

Times and Time Zones

All times are in EDT time to prevent confusion due to time zone crossing. See the DAL3860 flight status page for this flight to view local times or setup timezone preferences in your user account.

Time Position Orientation Groundspeed Altitude Reporting Facility
EDT Latitude Longitude Course Direction KTS MPH feet Rate Location/Type
09:12AM 41.4194 -81.8347 252° West 156 180 1,800  Level Cleveland Center
09:13AM 41.4781 -81.8136 15° North 226 260 4,000 1,860 Climbing Cleveland Center
09:14AM 41.5192 -81.8561 322° Northwest 257 296 5,700 1,980 Climbing Cleveland Center
09:15AM 41.3302 -82.3793 252° West  Level FlightAware Approximate
09:15AM 41.5389 -81.9536 285° West 254 292 7,900  Level Cleveland Center
09:16AM 41.3000 -82.5088 270° West  Level FlightAware Approximate
09:16AM 41.4983 -82.0469 240° Southwest 252 290 10,500  Level Cleveland Center
09:17AM 41.2854 -82.6416 252° West  Level FlightAware Approximate
09:17AM 41.4572 -82.1458 241° Southwest 288 331 12,000  Level Cleveland Center
09:18AM 41.4142 -82.2500 241° Southwest 320 368 14,100 2,100 Climbing Cleveland Center
09:19AM 41.3708 -82.3622 243° Southwest 331 381 16,300 1,980 Climbing Cleveland Center
09:20AM 41.3272 -82.4717 242° Southwest 341 392 18,100 1,320 Climbing Cleveland Center
09:21AM 41.2981 -82.5925 252° West 341 392 19,000 840 Climbing Cleveland Center
09:22AM 41.2792 -82.7244 259° West 356 410 19,800 900 Climbing Cleveland Center
09:23AM 41.2597 -82.8619 259° West 375 432 20,800 960 Climbing Cleveland Center
09:24AM 41.2486 -82.9997 264° West 380 437 21,800 900 Climbing Cleveland Center
09:25AM 41.2894 -83.1367 292° West 385 443 22,700 960 Climbing Cleveland Center
09:26AM 41.3322 -83.2683 293° West 390 449 23,800 2,640 Climbing Cleveland Center
09:27AM 41.3728 -83.4056 292° West 395 455 28,000 960 Climbing Cleveland Center
09:28AM 41.4172 -83.5406 294° West 395 455 25,800 -780 Descending Cleveland Center
09:29AM 41.4511 -83.6778 288° West 395 455 26,500 660 Climbing Cleveland Center
09:30AM 41.4553 -83.8247 272° West 389 448 27,200 660 Climbing Cleveland Center
09:31AM 41.4617 -83.9694 273° West 395 455 27,900 360 Climbing Cleveland Center
09:32AM 41.4675 -84.1219 273° West 401 461 28,000  Climbing Cleveland Center
09:33AM 41.4750 -84.2750 274° West 406 467 28,000  Level Cleveland Center
09:34AM 41.4803 -84.4333 273° West 419 482 28,000  Level Cleveland Center
09:36AM 41.4919 -84.7447 273° West 435 501 28,000  Level Chicago Center
09:37AM 41.4961 -84.9042 272° West 432 497 28,000  Level Chicago Center
09:38AM 41.5014 -85.0617 273° West 428 493 28,000  Level Chicago Center
09:39AM 41.5053 -85.2206 272° West 426 490 28,000  Level Chicago Center
09:40AM 41.5092 -85.3831 272° West 428 493 28,000  Level Chicago Center
09:41AM 41.5133 -85.5461 272° West 429 494 28,000  Level Chicago Center
09:42AM 41.5175 -85.7050 272° West 428 493 28,000  Level Chicago Center
09:43AM 41.5219 -85.8961 272° West 427 491 28,000  Level Chicago Center
09:44AM 41.5400 -86.0506 279° West 427 491 28,000  Level Chicago Center
09:45AM 41.6219 -86.1661 314° West 433 498 28,000  Level Chicago Center
09:46AM 41.7081 -86.2797 315° West 435 501 28,000  Level Chicago Center
09:47AM 41.7942 -86.3969 315° West 438 504 28,000  Level Chicago Center
09:48AM 41.8772 -86.5133 314° West 435 501 28,000  Level Chicago Center
09:49AM 41.9619 -86.6292 315° West 435 501 28,000  Level Chicago Center
09:50AM 42.0567 -86.7619 314° West 433 498 28,000  Level Chicago Center
09:51AM 42.1389 -86.8789 313° West 433 498 28,000  Level Chicago Center
09:52AM 42.2211 -86.9933 314° West 430 495 28,000  Level Chicago Center
09:53AM 42.3181 -87.1314 314° West 425 489 28,000  Level Chicago Center
09:55AM 42.3997 -87.2478 314° West 430 495 28,000  Level Chicago Center
09:56AM 42.4814 -87.3639 314° West 429 494 28,000  Level Chicago Center
09:57AM 42.5383 -87.5025 299° West 425 489 28,000  Level Chicago Center
09:58AM 42.5972 -87.6564 298° West 422 486 28,000  Level Chicago Center
09:59AM 42.6514 -87.7986 297° West 423 487 28,000  Level Chicago Center
10:00AM 42.7056 -87.9389 298° West 418 481 28,000  Level Chicago Center
10:01AM 42.7597 -88.0797 298° West 418 481 28,000  Level Chicago Center
10:02AM 42.8219 -88.2433 297° West 417 480 28,000  Level Chicago Center
10:03AM 42.8756 -88.3833 298° West 415 478 28,000  Level Chicago Center
10:04AM 42.9289 -88.5239 297° West 415 478 28,000  Level Chicago Center
10:05AM 42.9817 -88.6647 297° West 414 476 28,000  Level Chicago Center
10:06AM 43.0347 -88.8058 297° West 413 475 28,000  Level Chicago Center
10:07AM 43.0878 -88.9467 297° West 414 476 28,000  Level Chicago Center
10:08AM 43.1397 -89.0883 297° West 414 476 28,000  Level Chicago Center
10:09AM 43.1942 -89.2314 298° West 419 482 28,000  Level Chicago Center
10:10AM 43.2544 -89.3967 297° West 415 478 28,000  Level Chicago Center
10:11AM 43.3067 -89.5408 297° West 419 482 28,000  Level Chicago Center
10:12AM 43.3575 -89.6836 296° West 416 479 28,000  Level Chicago Center
10:13AM 43.4086 -89.8283 296° West 418 481 28,000  Level Chicago Center
10:14AM 43.4525 -89.9486 297° West 419 482 28,000  Level Minneapolis Center
10:15AM 43.5036 -90.0936 296° West 421 484 28,000  Level Minneapolis Center
10:16AM 43.5758 -90.2225 308° West 427 491 28,000  Level Minneapolis Center
10:17AM 43.6628 -90.3583 312° West 430 495 28,000  Level Minneapolis Center
10:18AM 43.7408 -90.4797 312° West 428 493 28,000  Level Minneapolis Center
10:19AM 43.8181 -90.6014 311° West 427 491 28,000  Level Minneapolis Center
10:20AM 43.8956 -90.7236 311° West 426 490 28,000  Level Minneapolis Center
10:21AM 43.9725 -90.8447 311° West 424 488 28,000  Level Minneapolis Center
10:22AM 44.0497 -90.9664 311° West 423 487 28,000  Level Minneapolis Center
10:23AM 44.1425 -91.1114 312° West 423 487 28,000  Level Minneapolis Center
10:24AM 44.2194 -91.2361 311° West 426 490 28,000 -480 Level Minneapolis Center
10:25AM 44.2942 -91.3553 311° West 427 491 27,100 -1,620 Descending Minneapolis Center
10:26AM 44.3717 -91.4817 311° West 430 495 24,800 -2,280 Descending Minneapolis Center
10:27AM 44.4486 -91.6042 311° West 424 488 22,500 -2,520 Descending Minneapolis Center
10:28AM 44.5361 -91.7489 310° West 410 472 19,700 -2,400 Descending Minneapolis Center
10:29AM 44.6081 -91.8675 310° West 403 464 17,600 -2,100 Descending Minneapolis Center
10:30AM 44.6511 -91.9167 321° Northwest 393 452 16,600 -2,160 Descending FAA TRACON SMA TRACON (SMA)
10:30AM 44.6728 -91.9542 309° West 401 461 15,900 -2,400 Descending FAA TRACON SMA TRACON (SMA)
10:30AM 44.7006 -92.0006 310° West 405 466 15,000 -2,400 Descending FAA TRACON SMA TRACON (SMA)
10:31AM 44.7214 -92.0375 308° West 400 460 14,300 -1,980 Descending FAA TRACON SMA TRACON (SMA)
10:31AM 44.7433 -92.0736 311° West 397 457 13,700 -2,100 Descending FAA TRACON SMA TRACON (SMA)
10:31AM 44.7692 -92.1186 309° West 387 445 12,900 -2,100 Descending FAA TRACON SMA TRACON (SMA)
10:32AM 44.8103 -92.1883 310° West 378 435 11,600 -2,100 Descending FAA TRACON SMA TRACON (SMA)
10:32AM 44.8356 -92.2306 310° West 373 429 10,800 -2,280 Descending FAA TRACON SMA TRACON (SMA)
10:33AM 44.8553 -92.2644 309° West 370 426 10,100 -1,200 Descending FAA TRACON SMA TRACON (SMA)
10:33AM 44.8672 -92.3128 289° West 352 405 10,000 -180 Descending FAA TRACON SMA TRACON (SMA)
10:33AM 44.8664 -92.3525 268° West 335 386 10,000  Level FAA TRACON SMA TRACON (SMA)
10:34AM 44.8564 -92.3906 250° West 334 384 10,000 -180 Level FAA TRACON SMA TRACON (SMA)
10:34AM 44.8406 -92.4325 242° Southwest 324 373 9,900 -180 Descending FAA TRACON SMA TRACON (SMA)
10:34AM 44.8264 -92.4617 236° Southwest 305 351 9,900 -180 Level FAA TRACON SMA TRACON (SMA)
10:35AM 44.8133 -92.4872 234° Southwest 276 318 9,800 -1,080 Descending FAA TRACON SMA TRACON (SMA)
10:35AM 44.7983 -92.5183 236° Southwest 255 293 9,200 -1,260 Descending FAA TRACON SMA TRACON (SMA)
10:35AM 44.7844 -92.5439 233° Southwest 255 293 9,000 -300 Descending FAA TRACON SMA TRACON (SMA)
10:36AM 44.7717 -92.5694 235° Southwest 258 297 9,000  Level FAA TRACON SMA TRACON (SMA)
10:36AM 44.7544 -92.6025 234° Southwest 268 308 9,000 -480 Level FAA TRACON SMA TRACON (SMA)
10:36AM 44.7414 -92.6283 235° Southwest 269 310 8,700 -1,080 Descending FAA TRACON SMA TRACON (SMA)
10:37AM 44.7283 -92.6542 235° Southwest 265 305 8,300 -1,500 Descending FAA TRACON SMA TRACON (SMA)
10:37AM 44.7169 -92.6811 239° Southwest 262 302 7,700 -1,980 Descending FAA TRACON SMA TRACON (SMA)
10:37AM 44.7144 -92.7206 265° West 264 304 7,000 -1,800 Descending FAA TRACON SMA TRACON (SMA)
10:38AM 44.7153 -92.7514 272° West 260 299 6,500 -1,500 Descending FAA TRACON SMA TRACON (SMA)
10:38AM 44.7147 -92.7828 269° West 259 298 6,000 -780 Descending FAA TRACON SMA TRACON (SMA)
10:38AM 44.7150 -92.8214 271° West 257 296 6,000  Level FAA TRACON SMA TRACON (SMA)
10:39AM 44.7217 -92.8514 287° West 265 305 6,000  Level FAA TRACON SMA TRACON (SMA)
10:39AM 44.7333 -92.8792 301° West 268 308 6,000 -600 Level FAA TRACON SMA TRACON (SMA)
10:39AM 44.7486 -92.9111 304° West 258 297 5,600 -1,080 Descending FAA TRACON SMA TRACON (SMA)
10:40AM 44.7589 -92.9350 301° West 240 276 5,300 -1,080 Descending FAA TRACON SMA TRACON (SMA)
10:40AM 44.7683 -92.9578 300° West 223 257 4,900 -900 Descending FAA TRACON SMA TRACON (SMA)
10:40AM 44.7797 -92.9842 301° West 206 237 4,700 -1,080 Descending FAA TRACON SMA TRACON (SMA)
10:41AM 44.7881 -93.0050 299° West 200 230 4,200 -1,500 Descending FAA TRACON SMA TRACON (SMA)